Time;durP1;ratioP1;P1;durP2;ratioP2;P2;SDS_P1;SDS_P2;PMS_P1;PMS_P2;Temp;Humidity;BMP_temperature;BMP_pressure;BME280_temperature;BME280_humidity;BME280_pressure;Samples;Min_cycle;Max_cycle;Signal;HPM_P1;HPM_P2
2021/11/09 00:02:05;;;;;;;17.98;6.53;;;;;;;12.51;75.23;100727.00;5002184;28;20073;-46
2021/11/09 00:04:37;;;;;;;19.00;6.93;;;;;;;12.50;75.30;100723.53;5003390;28;20053;-48
2021/11/09 00:07:12;;;;;;;16.00;6.43;;;;;;;12.47;75.58;100720.97;5005192;28;20062;-48
2021/11/09 00:09:56;;;;;;;15.75;6.70;;;;;;;12.47;76.00;100713.16;5006706;28;20077;-47
2021/11/09 00:12:28;;;;;;;20.00;7.07;;;;;;;12.49;75.38;100706.22;5007241;28;20042;-52
2021/11/09 00:14:57;;;;;;;17.55;6.25;;;;;;;12.46;75.91;100704.50;5007320;28;20045;-47
2021/11/09 00:17:24;;;;;;;16.80;6.60;;;;;;;12.47;75.84;100710.56;5003143;28;20042;-51
2021/11/09 00:19:51;;;;;;;16.92;6.05;;;;;;;12.48;76.81;100709.69;4999787;28;20050;-46
2021/11/09 00:22:19;;;;;;;16.13;5.60;;;;;;;12.46;76.26;100712.28;5003468;28;20060;-48
2021/11/09 00:24:46;;;;;;;16.35;6.03;;;;;;;12.44;77.20;100702.75;5005548;28;20057;-50
2021/11/09 00:27:12;;;;;;;16.95;5.93;;;;;;;12.46;76.83;100706.22;5000727;28;20050;-53
2021/11/09 00:29:40;;;;;;;13.85;5.20;;;;;;;12.46;76.12;100703.63;5004408;28;20406;-48
2021/11/09 00:32:08;;;;;;;15.32;6.40;;;;;;;12.47;76.02;100710.56;5002661;28;20073;-50
2021/11/09 00:34:36;;;;;;;14.00;6.07;;;;;;;12.48;76.15;100704.50;5002363;28;20164;-48
2021/11/09 00:37:03;;;;;;;16.00;7.63;;;;;;;12.49;77.12;100700.19;5000997;28;20603;-47
2021/11/09 00:39:30;;;;;;;16.65;6.07;;;;;;;12.52;75.49;100701.03;5000537;28;20050;-49
2021/11/09 00:41:58;;;;;;;13.55;5.50;;;;;;;12.53;75.92;100701.91;5005590;28;20049;-46
2021/11/09 00:44:25;;;;;;;14.60;5.75;;;;;;;12.50;75.81;100702.75;5002257;28;20045;-46
2021/11/09 00:46:53;;;;;;;14.82;7.05;;;;;;;12.51;75.73;100704.50;5004460;28;20651;-46
2021/11/09 00:49:20;;;;;;;11.95;4.90;;;;;;;12.47;75.76;100702.78;5007247;28;20050;-47
2021/11/09 00:51:50;;;;;;;11.45;3.90;;;;;;;12.48;76.57;100704.50;5000570;28;20069;-45
2021/11/09 00:54:18;;;;;;;11.25;4.57;;;;;;;12.52;76.84;100706.22;4986888;28;20050;-52
2021/11/09 00:56:46;;;;;;;13.00;4.60;;;;;;;12.53;75.90;100707.94;5000273;28;20054;-45
2021/11/09 00:59:12;;;;;;;12.07;3.75;;;;;;;12.54;75.85;100699.31;5005218;28;20050;-51
2021/11/09 01:01:39;;;;;;;12.10;3.78;;;;;;;12.54;76.55;100696.72;5000348;28;20052;-44
2021/11/09 01:04:07;;;;;;;9.38;3.58;;;;;;;12.55;76.31;100695.84;5005540;28;20049;-48
2021/11/09 01:06:34;;;;;;;8.07;3.35;;;;;;;12.55;76.24;100695.84;4999606;28;20053;-46
2021/11/09 01:09:02;;;;;;;11.88;3.80;;;;;;;12.56;75.32;100697.56;4995183;28;20068;-53
2021/11/09 01:11:28;;;;;;;8.27;3.20;;;;;;;12.56;75.49;100686.28;5000378;28;20129;-46
2021/11/09 01:13:56;;;;;;;8.32;2.72;;;;;;;12.56;75.62;100687.16;5003302;28;20548;-44
2021/11/09 01:16:23;;;;;;;7.75;2.95;;;;;;;12.56;75.90;100691.47;5001945;28;20073;-51
2021/11/09 01:18:53;;;;;;;7.50;2.92;;;;;;;12.54;76.41;100678.53;5003291;28;20042;-50
2021/11/09 01:21:21;;;;;;;7.82;2.63;;;;;;;12.53;75.54;100687.16;5004253;28;20528;-53
2021/11/09 01:23:51;;;;;;;8.20;2.63;;;;;;;12.52;75.52;100676.75;5000821;28;20049;-48
2021/11/09 01:26:18;;;;;;;6.53;2.83;;;;;;;12.48;76.58;100678.50;5005104;28;20049;-51
2021/11/09 01:28:47;;;;;;;7.38;2.63;;;;;;;12.51;75.63;100682.84;5001598;28;20478;-52
2021/11/09 01:31:15;;;;;;;6.30;2.30;;;;;;;12.47;76.04;100687.19;5002797;28;20425;-48
2021/11/09 01:33:42;;;;;;;6.80;2.63;;;;;;;12.51;76.23;100688.03;5004798;28;20381;-50
2021/11/09 01:36:09;;;;;;;7.18;2.03;;;;;;;12.52;76.16;100679.38;5002694;28;20054;-48
2021/11/09 01:38:37;;;;;;;5.57;2.00;;;;;;;12.51;75.21;100673.31;5004056;28;20058;-48
2021/11/09 01:41:05;;;;;;;4.18;1.85;;;;;;;12.49;75.55;100682.00;5002956;28;20061;-45
2021/11/09 01:43:32;;;;;;;4.95;1.83;;;;;;;12.48;75.92;100683.72;5004184;28;20441;-44
2021/11/09 01:45:59;;;;;;;7.65;2.22;;;;;;;12.46;75.42;100680.22;4998078;28;20045;-49
2021/11/09 01:48:26;;;;;;;4.10;1.55;;;;;;;12.47;75.48;100679.38;5003895;28;20038;-51
2021/11/09 01:50:57;;;;;;;5.07;1.70;;;;;;;12.46;75.42;100680.22;5000635;28;20050;-49
2021/11/09 01:53:24;;;;;;;6.70;1.70;;;;;;;12.45;74.99;100678.50;5002863;28;20054;-50
2021/11/09 01:55:51;;;;;;;4.50;1.42;;;;;;;12.45;76.13;100678.50;5001691;28;20056;-44
2021/11/09 01:58:18;;;;;;;4.63;1.50;;;;;;;12.44;75.60;100676.78;5005435;28;20053;-48
2021/11/09 02:00:49;;;;;;;4.68;1.83;;;;;;;12.43;75.19;100685.44;5000413;28;20069;-45
2021/11/09 02:03:18;;;;;;;6.78;1.48;;;;;;;12.46;75.26;100677.63;5008655;28;20057;-51
2021/11/09 02:05:45;;;;;;;5.20;1.60;;;;;;;12.41;75.81;100676.78;5006224;28;20045;-45
2021/11/09 02:08:12;;;;;;;5.20;2.03;;;;;;;12.43;76.05;100675.06;5004869;28;20042;-47
2021/11/09 02:10:41;;;;;;;5.65;1.55;;;;;;;12.41;75.87;100672.47;5006194;28;20061;-48
2021/11/09 02:13:09;;;;;;;4.97;1.55;;;;;;;12.41;75.17;100672.47;5006848;28;20046;-52
2021/11/09 02:15:37;;;;;;;4.05;1.35;;;;;;;12.40;75.33;100675.06;5004974;28;20071;-51
2021/11/09 02:18:06;;;;;;;5.63;1.73;;;;;;;12.42;74.99;100679.38;5006066;28;20046;-45
2021/11/09 02:20:34;;;;;;;5.53;1.90;;;;;;;12.40;74.83;100672.47;5004377;28;20042;-51
2021/11/09 02:23:01;;;;;;;4.70;1.45;;;;;;;12.39;75.38;100675.94;5006630;28;20052;-47
2021/11/09 02:25:30;;;;;;;5.15;1.40;;;;;;;12.37;74.76;100680.25;5008063;28;20048;-46
2021/11/09 02:28:00;;;;;;;5.32;1.10;;;;;;;12.32;76.17;100670.72;5004505;28;20053;-46
2021/11/09 02:30:28;;;;;;;5.50;1.85;;;;;;;12.30;74.93;100675.03;5009043;28;20065;-49
2021/11/09 02:32:57;;;;;;;4.28;1.85;;;;;;;12.26;75.61;100668.13;5009254;28;20053;-52
2021/11/09 02:35:24;;;;;;;5.72;1.48;;;;;;;12.26;75.94;100672.47;4989846;28;20041;-48
2021/11/09 02:37:53;;;;;;;5.25;1.13;;;;;;;12.23;75.50;100673.34;5005788;28;20065;-47
2021/11/09 02:40:20;;;;;;;4.20;1.33;;;;;;;12.20;75.98;100673.31;5009266;28;20045;-48
2021/11/09 02:42:53;;;;;;;3.88;1.48;;;;;;;12.17;75.83;100673.31;5008406;28;20585;-43
2021/11/09 02:45:29;;;;;;;5.60;1.10;;;;;;;12.13;75.13;100676.78;5006637;28;20064;-42
2021/11/09 02:48:07;;;;;;;4.25;1.58;;;;;;;12.11;74.98;100683.69;5008805;28;20096;-47
2021/11/09 02:50:38;;;;;;;3.40;1.40;;;;;;;12.07;74.87;100673.31;5006901;28;20072;-44
2021/11/09 02:53:11;;;;;;;4.85;1.55;;;;;;;12.03;75.63;100681.91;5006290;28;20053;-52
2021/11/09 02:55:42;;;;;;;7.38;1.60;;;;;;;11.99;76.00;100674.97;5003843;28;20038;-46
2021/11/09 02:58:31;;;;;;;5.40;1.40;;;;;;;11.95;75.12;100674.13;5005073;28;20050;-47
2021/11/09 03:03:58;;;;;;;4.10;1.33;;;;;;;11.88;75.66;100681.88;5002423;28;20072;-48
2021/11/09 03:06:46;;;;;;;3.88;1.42;;;;;;;11.87;75.46;100672.38;5003091;28;20173;-48
2021/11/09 03:09:18;;;;;;;6.03;1.92;;;;;;;11.83;75.85;100674.97;5005248;28;20121;-48
2021/11/09 03:11:55;;;;;;;4.85;1.80;;;;;;;11.84;76.29;100681.03;5002684;28;20038;-42
2021/11/09 03:14:24;;;;;;;5.57;2.00;;;;;;;11.86;75.77;100684.50;5008755;28;20448;-51
2021/11/09 03:16:51;;;;;;;6.93;1.77;;;;;;;11.86;76.20;100684.50;5008252;28;20096;-45
2021/11/09 03:19:39;;;;;;;6.43;3.13;;;;;;;11.89;75.23;100678.44;5007830;28;20640;-49
2021/11/09 03:44:41;;;;;;;8.27;1.60;;;;;;;12.05;75.07;100685.38;5004619;28;20108;-46
2021/11/09 03:47:12;;;;;;;7.15;2.10;;;;;;;12.07;75.33;100683.72;5005306;28;20041;-54
2021/11/09 03:49:39;;;;;;;7.13;2.25;;;;;;;12.10;75.97;100684.56;5004250;28;20062;-48
2021/11/09 03:52:18;;;;;;;6.35;2.17;;;;;;;12.12;75.45;100688.03;5007643;28;20544;-46
2021/11/09 03:54:46;;;;;;;4.05;1.70;;;;;;;12.13;75.57;100684.56;5002744;28;20057;-50
2021/11/09 03:57:24;;;;;;;5.10;1.70;;;;;;;12.16;74.86;100692.38;5005162;28;20053;-49
2021/11/09 04:00:14;;;;;;;6.45;1.70;;;;;;;12.16;75.04;100687.19;5002554;28;20046;-49
2021/11/09 04:05:28;;;;;;;4.45;1.60;;;;;;;12.10;74.62;100692.34;5007167;28;20050;-50
2021/11/09 04:08:05;;;;;;;5.55;1.80;;;;;;;12.07;74.94;100690.63;5004609;28;20084;-46
2021/11/09 04:10:40;;;;;;;7.75;2.22;;;;;;;12.01;74.94;100683.66;5002347;28;20058;-50
2021/11/09 04:13:29;;;;;;;4.65;1.90;;;;;;;11.97;75.96;100681.91;5006104;28;20050;-45
2021/11/09 04:16:12;;;;;;;5.03;1.30;;;;;;;11.91;75.02;100677.59;5003086;28;20050;-48
2021/11/09 04:18:49;;;;;;;5.80;1.67;;;;;;;11.86;75.35;100681.03;5005968;28;20080;-52
2021/11/09 04:21:33;;;;;;;5.32;1.45;;;;;;;11.81;74.56;100681.88;5006740;28;20054;-47
2021/11/09 04:27:01;;;;;;;7.88;1.80;;;;;;;11.71;74.51;100685.31;5007660;28;20425;-47
2021/11/09 04:29:42;;;;;;;4.18;1.50;;;;;;;11.66;75.01;100681.84;5006196;28;20050;-43
2021/11/09 04:35:24;;;;;;;6.47;1.30;;;;;;;11.59;75.54;100690.47;4993581;28;20053;-46
2021/11/09 05:03:01;;;;;;;2.78;1.75;;;;;;;11.23;75.89;100688.59;4999415;28;20366;-49
2021/11/09 05:11:01;;;;;;;4.95;1.20;;;;;;;11.07;76.06;100681.63;4998795;28;20056;-48
2021/11/09 05:13:27;;;;;;;3.78;1.35;;;;;;;11.04;76.06;100691.09;5006590;28;20050;-49
2021/11/09 05:15:54;;;;;;;3.63;1.15;;;;;;;11.02;74.97;100690.19;5005706;28;20053;-48
2021/11/09 05:18:22;;;;;;;2.50;1.10;;;;;;;10.96;74.95;100685.00;5004387;28;20069;-48
2021/11/09 05:20:49;;;;;;;3.97;1.25;;;;;;;10.95;75.09;100683.28;5001676;28;20041;-47
2021/11/09 05:23:16;;;;;;;3.70;1.25;;;;;;;10.93;75.86;100684.97;5002322;28;20054;-48
2021/11/09 05:25:43;;;;;;;2.00;1.00;;;;;;;10.89;75.19;100685.81;5003340;28;20054;-50
2021/11/09 05:28:11;;;;;;;2.05;0.80;;;;;;;10.88;74.75;100686.69;5006274;28;20056;-51
2021/11/09 05:30:40;;;;;;;4.63;2.08;;;;;;;10.84;75.96;100695.31;5005526;28;20733;-44
2021/11/09 05:33:06;;;;;;;4.90;0.70;;;;;;;10.84;75.77;100690.13;5003596;28;20054;-47
2021/11/09 05:35:34;;;;;;;3.70;0.80;;;;;;;10.80;75.44;100689.22;5001073;28;20065;-51
2021/11/09 05:38:03;;;;;;;2.97;1.00;;;;;;;10.77;76.01;100697.84;5004798;28;20655;-50
2021/11/09 05:40:36;;;;;;;3.17;1.10;;;;;;;10.75;75.21;100696.97;5005330;28;20087;-48
2021/11/09 05:43:06;;;;;;;3.00;1.05;;;;;;;10.72;75.08;100696.94;5001004;28;20058;-46
2021/11/09 05:45:33;;;;;;;1.98;0.70;;;;;;;10.71;75.36;100699.53;5001578;28;20058;-44
2021/11/09 05:48:00;;;;;;;5.07;0.90;;;;;;;10.69;75.47;100694.31;4993557;28;20049;-47
2021/11/09 05:50:28;;;;;;;2.63;1.10;;;;;;;10.67;75.07;100698.63;5002241;28;20046;-43
2021/11/09 05:52:58;;;;;;;3.92;1.20;;;;;;;10.66;75.60;100702.06;5002796;28;20057;-48
2021/11/09 05:55:25;;;;;;;2.70;0.52;;;;;;;10.64;75.23;100703.81;5005054;28;20053;-53
2021/11/09 05:57:51;;;;;;;5.55;1.05;;;;;;;10.61;75.66;100703.78;5003757;28;20536;-53
2021/11/09 06:00:19;;;;;;;4.53;1.05;;;;;;;10.58;74.87;100703.75;5005301;28;20465;-53
2021/11/09 06:02:45;;;;;;;3.47;1.00;;;;;;;10.56;75.56;100700.25;5002631;28;20042;-50
2021/11/09 06:05:12;;;;;;;2.80;1.02;;;;;;;10.53;75.86;100701.97;5002686;28;20449;-51
2021/11/09 06:07:39;;;;;;;3.78;1.20;;;;;;;10.52;75.21;100700.25;5003968;28;20057;-53
2021/11/09 06:10:07;;;;;;;4.40;1.42;;;;;;;10.51;75.46;100700.25;5003750;28;20062;-53
2021/11/09 06:12:34;;;;;;;5.68;2.47;;;;;;;10.47;75.92;100696.75;5000426;28;20050;-43
2021/11/09 06:15:01;;;;;;;5.88;2.00;;;;;;;10.46;75.77;100705.38;5002089;28;20406;-52
2021/11/09 06:17:27;;;;;;;3.38;1.60;;;;;;;10.44;74.95;100707.06;4998578;28;20050;-46
2021/11/09 06:19:54;;;;;;;6.50;1.40;;;;;;;10.39;75.04;100708.72;5003677;28;20050;-53
2021/11/09 06:22:22;;;;;;;5.30;1.80;;;;;;;10.36;75.01;100703.53;5002552;28;20058;-49
2021/11/09 06:24:50;;;;;;;4.80;1.98;;;;;;;10.34;75.55;100710.41;5005939;28;20057;-50
2021/11/09 06:27:18;;;;;;;6.70;1.63;;;;;;;10.28;75.55;100712.13;4999936;28;20057;-50
2021/11/09 06:29:45;;;;;;;8.50;1.90;;;;;;;10.28;76.17;100712.13;4999520;28;20133;-52
2021/11/09 06:32:11;;;;;;;3.85;1.50;;;;;;;10.26;75.69;100712.94;5003431;28;20105;-46
2021/11/09 06:34:38;;;;;;;5.80;1.65;;;;;;;10.25;75.80;100712.06;5002821;28;20101;-51
2021/11/09 06:37:05;;;;;;;3.58;1.50;;;;;;;10.21;75.82;100715.50;5007344;28;20096;-48
2021/11/09 06:39:31;;;;;;;5.32;1.20;;;;;;;10.22;75.25;100712.03;5003917;28;20084;-51
2021/11/09 06:41:59;;;;;;;3.10;1.38;;;;;;;10.23;75.33;100713.78;5000209;28;20076;-49
2021/11/09 06:44:26;;;;;;;9.25;2.00;;;;;;;10.24;75.13;100715.50;5003269;28;20049;-47
2021/11/09 06:46:52;;;;;;;5.15;1.25;;;;;;;10.24;75.39;100718.09;5004759;28;20050;-55
2021/11/09 06:49:19;;;;;;;7.63;1.95;;;;;;;10.24;75.93;100719.81;5009740;28;20049;-46
2021/11/09 06:51:46;;;;;;;7.30;1.83;;;;;;;10.23;75.14;100718.94;5006121;28;20061;-49
2021/11/09 06:54:13;;;;;;;7.53;1.58;;;;;;;10.21;75.42;100718.09;5005588;28;20046;-47
2021/11/09 06:56:40;;;;;;;4.65;1.10;;;;;;;10.19;75.89;100727.53;5004298;28;20460;-48
2021/11/09 06:59:07;;;;;;;2.65;1.02;;;;;;;10.18;75.83;100722.34;5005932;28;20057;-53
2021/11/09 07:01:35;;;;;;;4.35;1.35;;;;;;;10.13;75.77;100722.28;5001546;28;20050;-49
2021/11/09 07:04:02;;;;;;;6.35;1.67;;;;;;;10.13;74.99;100722.28;5000936;28;20058;-45
2021/11/09 07:06:29;;;;;;;4.00;1.08;;;;;;;10.09;75.19;100725.69;5008474;28;20041;-45
2021/11/09 07:08:55;;;;;;;3.67;0.82;;;;;;;10.07;75.16;100724.84;5003279;28;20371;-51
2021/11/09 07:11:22;;;;;;;4.10;1.02;;;;;;;10.01;75.36;100731.69;5006127;28;20136;-50
2021/11/09 07:13:49;;;;;;;4.03;2.35;;;;;;;10.01;75.29;100734.28;5005208;28;20652;-50
2021/11/09 07:16:16;;;;;;;4.45;1.48;;;;;;;9.99;75.72;100735.97;5003786;28;20081;-51
2021/11/09 07:18:43;;;;;;;4.25;1.20;;;;;;;9.98;75.35;100743.72;5005459;28;20034;-46
2021/11/09 07:21:10;;;;;;;3.88;1.33;;;;;;;9.96;76.00;100733.34;5009728;28;20057;-54
2021/11/09 07:23:37;;;;;;;5.50;0.85;;;;;;;9.95;75.51;100744.56;5003326;28;20041;-49
2021/11/09 07:26:04;;;;;;;4.00;1.08;;;;;;;9.95;75.33;100746.25;5008551;28;20050;-50
2021/11/09 07:28:30;;;;;;;4.13;1.20;;;;;;;9.99;75.53;100756.69;5002820;28;20686;-46
2021/11/09 07:31:01;;;;;;;2.80;0.90;;;;;;;10.00;75.61;100753.22;5003244;28;20049;-43
2021/11/09 07:33:28;;;;;;;4.03;1.05;;;;;;;10.07;75.38;100745.53;5003023;28;20076;-48
2021/11/09 07:35:55;;;;;;;3.45;1.15;;;;;;;10.14;75.42;100752.53;5000259;28;20112;-48
2021/11/09 07:38:22;;;;;;;4.88;1.00;;;;;;;10.21;75.64;100751.75;5002934;28;20042;-47
2021/11/09 07:40:49;;;;;;;4.88;1.10;;;;;;;10.25;75.66;100752.63;4999064;28;20097;-47
2021/11/09 07:43:17;;;;;;;3.92;1.50;;;;;;;10.31;75.47;100763.06;4998889;28;20049;-44
2021/11/09 07:45:43;;;;;;;4.50;1.00;;;;;;;10.36;75.15;100755.31;5000226;28;20490;-48
2021/11/09 07:48:12;;;;;;;3.45;1.20;;;;;;;10.45;75.83;100751.97;5000581;28;20161;-46
2021/11/09 07:50:38;;;;;;;5.80;1.10;;;;;;;10.58;75.03;100755.53;4996903;28;21192;-49
2021/11/09 07:53:08;;;;;;;4.15;0.90;;;;;;;10.71;74.75;100747.00;5001220;28;20058;-47
2021/11/09 07:55:39;;;;;;;2.58;0.80;;;;;;;10.88;75.60;100754.91;4990814;28;20050;-49
2021/11/09 07:58:15;;;;;;;5.05;0.77;;;;;;;11.10;74.55;100760.25;4995417;28;20106;-44
2021/11/09 08:00:47;;;;;;;3.95;0.88;;;;;;;11.46;74.86;100760.47;4999998;28;20058;-49
2021/11/09 08:03:18;;;;;;;1.88;0.98;;;;;;;11.81;73.29;100764.94;5000933;28;20549;-51
2021/11/09 08:06:08;;;;;;;2.45;0.85;;;;;;;12.18;72.92;100763.34;5003254;28;20522;-52
2021/11/09 08:08:38;;;;;;;6.20;1.13;;;;;;;12.57;72.47;100766.84;5005315;28;20112;-49
2021/11/09 08:11:08;;;;;;;2.95;1.05;;;;;;;13.10;71.60;100756.44;5005982;28;20053;-50
2021/11/09 08:13:35;;;;;;;2.72;0.90;;;;;;;13.66;70.08;100762.34;4998745;28;20053;-48
2021/11/09 08:16:01;;;;;;;2.72;1.23;;;;;;;14.19;69.07;100762.09;5008516;28;20111;-51
2021/11/09 08:18:28;;;;;;;4.00;1.02;;;;;;;14.73;68.19;100760.84;5001881;28;20101;-51
2021/11/09 08:20:58;;;;;;;3.13;1.10;;;;;;;15.14;67.21;100767.41;5005608;28;20045;-51
2021/11/09 08:23:25;;;;;;;4.57;0.90;;;;;;;15.51;66.80;100773.97;5006127;28;20048;-51
2021/11/09 08:25:52;;;;;;;3.35;1.00;;;;;;;15.83;65.39;100771.88;4998975;28;20116;-56
2021/11/09 08:28:20;;;;;;;2.30;0.80;;;;;;;16.19;64.86;100769.66;4999830;28;20061;-54
2021/11/09 08:30:51;;;;;;;4.75;1.33;;;;;;;16.65;64.24;100775.06;5003771;28;20079;-50
2021/11/09 08:33:19;;;;;;;3.38;1.13;;;;;;;17.33;63.03;100766.94;4997731;28;20060;-46
2021/11/09 08:35:46;;;;;;;2.20;1.00;;;;;;;17.99;61.62;100774.31;5002578;28;20137;-51
2021/11/09 08:38:13;;;;;;;3.88;2.33;;;;;;;18.50;60.69;100770.53;4999875;28;22852;-47
2021/11/09 08:40:41;;;;;;;4.28;1.50;;;;;;;18.98;59.30;100765.84;4991809;28;20049;-50
2021/11/09 08:43:08;;;;;;;2.92;1.38;;;;;;;19.34;57.94;100778.06;5000397;28;20064;-48
2021/11/09 08:45:36;;;;;;;3.88;1.30;;;;;;;19.74;56.32;100783.06;4992688;28;20124;-48
2021/11/09 08:48:08;;;;;;;3.00;1.52;;;;;;;20.18;56.05;100780.03;4992669;28;20053;-51
2021/11/09 08:50:35;;;;;;;3.97;1.45;;;;;;;20.74;54.19;100775.56;4993832;28;20108;-47
2021/11/09 08:53:07;;;;;;;2.50;1.50;;;;;;;20.28;53.32;100781.47;4993509;28;20096;-53
2021/11/09 08:56:26;;;;;;;5.25;1.35;;;;;;;19.51;54.13;100766.19;5002314;28;20052;-49
2021/11/09 08:58:37;;;;;;;4.00;1.40;;;;;;;18.63;55.31;100765.00;4996717;28;20058;-51
2021/11/09 09:06:37;;;;;;;2.97;1.10;;;;;;;16.68;58.39;100782.84;5001011;28;20062;-49
2021/11/09 09:09:04;;;;;;;4.10;1.50;;;;;;;16.31;58.83;100783.44;4993859;28;20132;-49
2021/11/09 09:11:33;;;;;;;3.92;1.63;;;;;;;16.03;60.24;100778.59;4995049;28;20107;-44
2021/11/09 09:14:01;;;;;;;3.40;1.35;;;;;;;15.77;60.64;100777.19;5002114;28;20050;-51
2021/11/09 09:16:30;;;;;;;5.47;1.80;;;;;;;15.51;60.81;100771.38;4995702;28;20124;-51
2021/11/09 09:18:59;;;;;;;4.30;1.48;;;;;;;15.23;61.85;100778.66;4997026;28;20053;-50
2021/11/09 09:21:34;;;;;;;5.15;1.60;;;;;;;15.01;62.27;100778.88;5003219;28;20045;-54
2021/11/09 09:24:10;;;;;;;6.22;1.60;;;;;;;14.85;62.63;100770.31;5004477;28;20057;-48
2021/11/09 09:26:49;;;;;;;6.75;1.92;;;;;;;14.70;63.10;100779.09;5001717;28;20045;-53
2021/11/09 09:29:29;;;;;;;4.25;1.50;;;;;;;14.58;63.47;100780.94;5002089;28;20045;-46
2021/11/09 09:54:27;;;;;;;1.85;1.23;;;;;;;15.33;64.21;100764.63;4982590;28;20058;-46
2021/11/09 09:56:57;;;;;;;5.63;1.13;;;;;;;15.64;63.75;100777.31;4986744;28;20086;-47
2021/11/09 09:59:29;;;;;;;2.33;1.13;;;;;;;15.84;62.45;100777.97;5000460;28;20053;-49
2021/11/09 10:02:14;;;;;;;5.78;1.20;;;;;;;15.94;61.89;100775.19;5017511;28;20530;-51
2021/11/09 10:04:46;;;;;;;3.15;1.00;;;;;;;16.06;61.68;100778.56;5002805;28;20049;-47
2021/11/09 10:07:27;;;;;;;3.47;1.10;;;;;;;16.22;61.43;100783.56;5002883;28;20056;-49
2021/11/09 10:09:53;;;;;;;2.88;0.90;;;;;;;16.30;61.69;100786.94;4998599;28;20042;-50
2021/11/09 10:12:32;;;;;;;1.73;0.75;;;;;;;16.23;60.84;100785.28;4995922;28;20076;-48
2021/11/09 10:15:05;;;;;;;2.78;1.15;;;;;;;16.13;60.85;100772.38;4999571;28;20633;-47
2021/11/09 10:17:33;;;;;;;2.92;0.90;;;;;;;16.16;60.64;100780.19;5000922;28;20088;-50
2021/11/09 10:20:18;;;;;;;5.25;1.05;;;;;;;16.38;61.39;100768.53;5002588;28;20057;-55
2021/11/09 10:22:49;;;;;;;1.83;1.00;;;;;;;16.89;60.06;100775.53;5000884;28;20046;-47
2021/11/09 10:25:19;;;;;;;6.90;1.63;;;;;;;17.27;59.96;100774.91;4992179;28;20058;-45
2021/11/09 10:27:49;;;;;;;5.13;1.35;;;;;;;17.69;59.39;100772.31;5006293;28;20104;-47
2021/11/09 10:30:21;;;;;;;3.85;1.00;;;;;;;17.96;57.71;100780.47;5005685;28;20123;-48
2021/11/09 10:32:48;;;;;;;5.72;2.03;;;;;;;18.05;58.27;100783.78;5007043;28;20049;-50
2021/11/09 10:35:17;;;;;;;4.05;1.48;;;;;;;17.93;58.17;100785.78;5005031;28;20391;-53
2021/11/09 10:37:47;;;;;;;4.28;1.20;;;;;;;17.78;57.16;100780.88;5006807;28;20054;-48
2021/11/09 10:40:18;;;;;;;2.55;1.00;;;;;;;17.75;57.12;100791.41;4990095;28;20041;-45
2021/11/09 10:42:49;;;;;;;2.95;1.15;;;;;;;17.74;57.16;100785.31;4988432;28;20058;-48
2021/11/09 10:45:19;;;;;;;3.85;1.02;;;;;;;17.67;56.63;100784.56;5003277;28;20050;-46
2021/11/09 10:47:50;;;;;;;3.20;0.70;;;;;;;17.58;57.10;100785.63;5009061;28;20061;-47
2021/11/09 10:50:29;;;;;;;5.90;0.77;;;;;;;17.45;57.43;100782.41;5003735;28;20085;-43
2021/11/09 10:53:11;;;;;;;3.75;1.00;;;;;;;17.28;57.58;100781.84;5000887;28;20093;-44
2021/11/09 10:55:48;;;;;;;2.40;1.00;;;;;;;17.11;57.10;100785.66;5002710;28;20418;-51
2021/11/09 10:58:28;;;;;;;5.60;0.80;;;;;;;16.94;57.56;100783.31;5005417;28;20054;-47
2021/11/09 11:06:34;;;;;;;3.65;0.85;;;;;;;16.78;58.90;100772.22;4984428;28;20137;-43
2021/11/09 11:09:15;;;;;;;3.25;0.60;;;;;;;16.74;58.38;100773.16;5006681;28;20062;-49
2021/11/09 11:12:03;;;;;;;2.00;0.98;;;;;;;16.80;59.01;100773.97;5005320;28;20101;-52
2021/11/09 11:14:31;;;;;;;2.22;0.60;;;;;;;16.77;58.69;100767.91;5004473;28;20050;-52
2021/11/09 11:17:04;;;;;;;4.60;1.02;;;;;;;16.60;58.29;100769.06;5000595;28;20057;-45
2021/11/09 11:19:37;;;;;;;2.22;0.70;;;;;;;16.43;58.89;100764.97;5005812;28;20193;-51
2021/11/09 11:22:07;;;;;;;1.88;0.63;;;;;;;16.32;60.01;100764.25;5005827;28;20052;-49
2021/11/09 11:24:35;;;;;;;4.75;1.02;;;;;;;16.27;59.99;100750.38;5020109;28;20104;-46
2021/11/09 11:27:04;;;;;;;2.58;0.52;;;;;;;16.19;59.86;100753.97;5003303;28;20062;-50
2021/11/09 11:29:36;;;;;;;1.52;1.42;;;;;;;16.06;59.83;100760.28;5002682;28;20049;-53
2021/11/09 11:32:06;;;;;;;3.05;0.82;;;;;;;15.94;59.75;100759.53;5001656;28;20108;-44
2021/11/09 11:34:33;;;;;;;2.65;1.00;;;;;;;15.80;59.89;100756.22;5001840;28;20059;-48
2021/11/09 11:37:01;;;;;;;3.03;0.80;;;;;;;15.77;60.47;100751.06;4999410;28;20070;-49
2021/11/09 11:39:30;;;;;;;5.70;1.05;;;;;;;15.74;60.77;100746.72;5006000;28;20046;-50
2021/11/09 11:42:01;;;;;;;3.05;0.60;;;;;;;15.74;60.20;100753.72;5002952;28;20637;-48
2021/11/09 11:44:31;;;;;;;2.13;0.60;;;;;;;15.68;60.77;100752.88;5004671;28;21195;-52
2021/11/09 11:47:02;;;;;;;2.70;0.82;;;;;;;15.70;61.09;100749.41;5004366;28;20050;-48
2021/11/09 11:49:45;;;;;;;4.13;1.25;;;;;;;15.65;60.76;100752.06;5002567;28;20061;-45
2021/11/09 11:52:18;;;;;;;4.82;0.80;;;;;;;15.63;60.66;100744.25;5000886;28;20129;-47
2021/11/09 11:54:50;;;;;;;1.63;0.73;;;;;;;15.64;61.25;100739.91;5020215;28;20096;-48
2021/11/09 11:57:27;;;;;;;2.22;1.00;;;;;;;15.60;61.39;100744.28;5003308;28;20058;-48
2021/11/09 11:59:54;;;;;;;0.98;0.68;;;;;;;15.61;61.38;100740.81;4996687;28;20508;-48
2021/11/09 12:02:38;;;;;;;1.30;0.57;;;;;;;15.56;61.48;100747.84;5000156;28;20042;-44
2021/11/09 12:05:06;;;;;;;1.73;0.70;;;;;;;15.56;60.97;100737.38;4977074;28;20090;-47
2021/11/09 12:07:54;;;;;;;2.17;0.90;;;;;;;15.46;61.32;100733.16;4999989;28;20058;-46
2021/11/09 12:10:21;;;;;;;3.70;1.00;;;;;;;15.49;61.86;100725.28;5000032;28;20061;-46
2021/11/09 12:13:06;;;;;;;1.35;0.95;;;;;;;15.43;61.72;100715.78;4997255;28;20062;-51
2021/11/09 12:15:53;;;;;;;2.85;1.23;;;;;;;15.36;61.62;100720.22;4998215;28;20050;-47
2021/11/09 12:18:38;;;;;;;1.63;0.90;;;;;;;15.38;61.81;100710.66;5000894;28;20551;-45
2021/11/09 12:21:35;;;;;;;5.05;0.73;;;;;;;15.34;62.25;100705.47;4998968;28;20050;-48
2021/11/09 12:24:20;;;;;;;2.78;1.67;;;;;;;15.36;62.53;100709.78;4997113;28;20046;-48
2021/11/09 12:26:55;;;;;;;2.45;0.93;;;;;;;15.47;62.55;100703.56;4998084;28;20058;-43
2021/11/09 12:29:41;;;;;;;2.42;0.60;;;;;;;15.51;62.22;100710.47;4999664;28;20104;-44
2021/11/09 12:32:28;;;;;;;1.10;0.73;;;;;;;15.53;62.43;100706.09;5000760;28;20045;-45
2021/11/09 12:35:02;;;;;;;2.22;0.80;;;;;;;15.54;62.25;100702.63;4999797;28;20053;-51
2021/11/09 12:37:33;;;;;;;3.15;1.10;;;;;;;15.52;62.38;100693.94;5000208;28;20046;-52
2021/11/09 12:40:37;;;;;;;3.75;1.00;;;;;;;15.40;62.28;100695.81;4986314;28;20099;-49
2021/11/09 12:43:17;;;;;;;1.10;0.70;;;;;;;15.35;62.54;100697.63;5002989;28;20468;-45
2021/11/09 12:45:50;;;;;;;2.33;0.85;;;;;;;15.32;63.13;100697.66;4984419;28;20108;-45
2021/11/09 12:48:24;;;;;;;1.98;0.70;;;;;;;15.28;62.78;100695.97;4998731;28;20050;-46
2021/11/09 12:50:56;;;;;;;1.17;0.95;;;;;;;15.24;63.34;100695.16;5002464;28;20053;-49
2021/11/09 12:53:24;;;;;;;2.50;0.90;;;;;;;15.25;63.17;100690.78;5000126;28;20466;-47
2021/11/09 12:56:01;;;;;;;2.28;0.70;;;;;;;15.23;62.55;100693.41;5003657;28;20469;-54
2021/11/09 12:58:32;;;;;;;0.98;0.63;;;;;;;15.27;63.04;100694.25;4998361;28;20100;-46
2021/11/09 13:01:21;;;;;;;1.73;0.70;;;;;;;15.25;63.05;100690.78;5000134;28;20057;-48
2021/11/09 13:04:03;;;;;;;2.42;0.95;;;;;;;15.24;62.92;100683.84;4999312;28;20390;-53
2021/11/09 13:06:38;;;;;;;1.52;1.00;;;;;;;15.28;63.26;100685.53;5000971;28;20046;-47
2021/11/09 13:09:12;;;;;;;0.80;0.45;;;;;;;15.27;63.32;100686.41;4996819;28;20049;-49
2021/11/09 13:11:43;;;;;;;1.75;0.65;;;;;;;15.22;63.44;100685.59;4998214;28;20054;-48
2021/11/09 13:14:11;;;;;;;0.93;0.65;;;;;;;15.27;63.37;100686.41;4999350;28;20057;-46
2021/11/09 13:16:57;;;;;;;3.05;0.60;;;;;;;15.25;63.71;100676.00;5002850;28;20124;-45
2021/11/09 13:19:36;;;;;;;2.00;0.80;;;;;;;15.24;63.51;100686.44;4999763;28;20053;-51
2021/11/09 13:22:24;;;;;;;2.35;0.65;;;;;;;15.20;63.39;100683.00;4992970;28;20104;-50